createdAt,value
2022-09-12T00:01:27.957Z,99093.17
2022-09-12T00:03:58.427Z,99092.40
2022-09-12T00:06:32.724Z,99096.88
2022-09-12T00:09:04.618Z,99096.39
2022-09-12T00:11:34.815Z,99101.13
2022-09-12T00:14:03.765Z,99099.53
2022-09-12T00:16:33.988Z,99097.58
2022-09-12T00:19:04.566Z,99100.94
2022-09-12T00:21:34.393Z,99101.17
2022-09-12T00:24:02.651Z,99106.64
2022-09-12T00:26:30.818Z,99105.58
2022-09-12T00:28:58.736Z,99103.14
2022-09-12T00:31:27.465Z,99103.30
2022-09-12T00:33:58.841Z,99107.02
2022-09-12T00:36:27.725Z,99107.19
2022-09-12T00:38:56.773Z,99106.23
2022-09-12T00:41:28.682Z,99106.92
2022-09-12T00:43:59.907Z,99103.15
2022-09-12T00:46:49.025Z,99106.84
2022-09-12T00:49:45.711Z,99109.93
2022-09-12T00:52:34.292Z,99108.29
2022-09-12T00:55:10.961Z,99106.52
2022-09-12T00:57:57.171Z,99113.85
2022-09-12T01:00:27.442Z,99106.23
2022-09-12T01:03:00.364Z,99107.77
2022-09-12T01:05:31.413Z,99106.04
2022-09-12T01:08:02.554Z,99107.84
2022-09-12T01:10:30.901Z,99106.34
2022-09-12T01:12:59.453Z,99108.55
2022-09-12T01:15:27.406Z,99115.88
2022-09-12T01:18:10.785Z,99106.89
2022-09-12T01:21:02.887Z,99112.45
2022-09-12T01:24:06.271Z,99112.36
2022-09-12T01:27:04.190Z,99115.89
2022-09-12T01:30:01.289Z,99116.00
2022-09-12T01:33:09.221Z,99112.79
2022-09-12T01:36:12.664Z,99115.54
2022-09-12T01:38:50.535Z,99107.66
2022-09-12T01:41:39.144Z,99101.91
2022-09-12T01:44:27.624Z,99102.77
2022-09-12T01:47:22.505Z,99100.23
2022-09-12T01:50:07.403Z,99100.17
2022-09-12T01:52:45.670Z,99099.77
2022-09-12T01:55:23.163Z,99098.60
2022-09-12T01:58:36.073Z,99102.77
2022-09-12T02:01:11.334Z,99103.77
2022-09-12T02:04:04.771Z,99106.74
2022-09-12T02:06:43.957Z,99103.45
2022-09-12T02:09:20.948Z,99104.67
2022-09-12T02:11:53.762Z,99112.83
2022-09-12T02:14:36.917Z,99104.02
2022-09-12T02:17:34.802Z,99107.66
2022-09-12T02:20:26.089Z,99105.92
2022-09-12T02:23:06.680Z,99095.54
2022-09-12T02:25:38.020Z,99098.83
2022-09-12T02:28:13.785Z,99101.08
2022-09-12T02:31:08.178Z,99098.27
2022-09-12T02:33:45.923Z,99094.33
2022-09-12T02:36:31.634Z,99097.05
2022-09-12T02:39:00.269Z,99094.88
2022-09-12T02:41:28.672Z,99094.50
2022-09-12T02:43:56.764Z,99094.66
2022-09-12T02:46:46.861Z,99094.92
2022-09-12T02:49:15.933Z,99096.42
2022-09-12T02:51:45.099Z,99095.85
2022-09-12T02:54:15.211Z,99091.58
2022-09-12T02:56:46.200Z,99090.14
2022-09-12T02:59:18.121Z,99094.48
2022-09-12T03:02:07.953Z,99095.60
2022-09-12T03:04:54.416Z,99098.38
2022-09-12T03:07:59.944Z,99097.33
2022-09-12T03:11:25.590Z,99105.13
2022-09-12T03:14:13.458Z,99100.14
2022-09-12T03:16:57.065Z,99100.20
2022-09-12T03:19:37.918Z,99100.81
2022-09-12T03:22:18.964Z,99103.55
2022-09-12T03:25:02.860Z,99098.04
2022-09-12T03:27:35.782Z,99101.05
2022-09-12T03:30:06.374Z,99095.40
2022-09-12T03:32:49.457Z,99090.52
2022-09-12T03:35:22.843Z,99088.70
2022-09-12T03:37:52.292Z,99091.34
2022-09-12T03:40:20.466Z,99087.25
2022-09-12T03:42:49.393Z,99091.41
2022-09-12T03:45:17.370Z,99094.88
2022-09-12T03:47:48.575Z,99097.84
2022-09-12T03:50:16.587Z,99099.42
2022-09-12T03:52:44.397Z,99103.23
2022-09-12T03:55:12.469Z,99104.00
2022-09-12T03:57:40.662Z,99101.77
2022-09-12T04:00:09.634Z,99103.55
2022-09-12T04:02:44.150Z,99100.67
2022-09-12T04:05:11.965Z,99102.81
2022-09-12T04:07:39.795Z,99105.33
2022-09-12T04:10:09.534Z,99108.16
2022-09-12T04:12:39.676Z,99109.84
2022-09-12T04:15:08.932Z,99107.68
2022-09-12T04:17:36.938Z,99106.52
2022-09-12T04:20:05.768Z,99108.41
2022-09-12T04:22:33.915Z,99105.71
2022-09-12T04:25:03.557Z,99107.19
2022-09-12T04:27:31.786Z,99103.79
2022-09-12T04:30:01.395Z,99102.67
2022-09-12T04:32:31.289Z,99099.61
2022-09-12T04:34:59.158Z,99102.09
2022-09-12T04:37:26.939Z,99110.46
2022-09-12T04:39:59.310Z,99110.86
2022-09-12T04:42:27.153Z,99114.81
2022-09-12T04:44:55.026Z,99112.95
2022-09-12T04:47:23.309Z,99120.07
2022-09-12T04:49:51.590Z,99118.62
2022-09-12T04:52:20.810Z,99113.27
2022-09-12T04:54:48.721Z,99113.95
2022-09-12T04:57:19.062Z,99111.52
2022-09-12T04:59:47.101Z,99116.27
2022-09-12T05:02:14.922Z,99116.64
2022-09-12T05:04:44.215Z,99116.06
2022-09-12T05:07:12.393Z,99118.55
2022-09-12T05:09:40.249Z,99121.71
2022-09-12T05:12:10.043Z,99120.59
2022-09-12T05:14:37.917Z,99123.04
2022-09-12T05:17:06.288Z,99130.65
2022-09-12T05:19:34.914Z,99129.19
2022-09-12T05:22:02.794Z,99132.91
2022-09-12T05:24:30.647Z,99128.84
2022-09-12T05:26:59.015Z,99130.98
2022-09-12T05:29:29.923Z,99129.53
2022-09-12T05:31:57.988Z,99135.40
2022-09-12T05:34:26.323Z,99141.44
2022-09-12T05:36:54.297Z,99139.75
2022-09-12T05:39:25.989Z,99142.56
2022-09-12T05:41:55.470Z,99145.70
2022-09-12T05:44:23.213Z,99148.60
2022-09-12T05:46:53.750Z,99150.13
2022-09-12T05:49:24.863Z,99154.78
2022-09-12T05:51:52.937Z,99155.80
2022-09-12T05:54:21.389Z,99158.42
2022-09-12T05:56:49.680Z,99155.34
2022-09-12T05:59:20.606Z,99155.95
2022-09-12T06:01:49.295Z,99156.13
2022-09-12T06:04:18.132Z,99153.24
2022-09-12T06:06:49.200Z,99150.20
2022-09-12T06:09:17.001Z,99151.92
2022-09-12T06:11:46.425Z,99149.75
2022-09-12T06:14:18.055Z,99149.85
2022-09-12T06:16:47.474Z,99146.77
2022-09-12T06:19:20.665Z,99148.55
2022-09-12T06:21:53.665Z,99154.79
2022-09-12T06:24:21.742Z,99153.70
2022-09-12T06:26:52.867Z,99153.98
2022-09-12T06:29:22.051Z,99152.05
2022-09-12T06:31:51.496Z,99154.55
2022-09-12T06:34:20.076Z,99157.73
2022-09-12T06:36:49.791Z,99161.52
2022-09-12T06:39:22.395Z,99159.76
2022-09-12T06:41:51.859Z,99160.58
2022-09-12T06:44:34.239Z,99164.06
2022-09-12T06:47:02.053Z,99165.71
2022-09-12T06:49:31.180Z,99172.56
2022-09-12T06:52:01.166Z,99168.02
2022-09-12T06:54:29.058Z,99163.60
2022-09-12T06:56:56.944Z,99164.58
2022-09-12T06:59:25.020Z,99170.69
2022-09-12T07:01:52.924Z,99168.44
2022-09-12T07:04:20.966Z,99171.93
2022-09-12T07:06:54.071Z,99168.73
2022-09-12T07:09:22.259Z,99173.46
2022-09-12T07:11:50.150Z,99182.80
2022-09-12T07:14:18.059Z,99174.49
2022-09-12T07:16:46.092Z,99184.73
2022-09-12T07:19:14.787Z,99187.41
2022-09-12T07:21:44.301Z,99188.39
2022-09-12T07:24:12.183Z,99188.52
2022-09-12T07:26:42.508Z,99192.29
2022-09-12T07:29:35.985Z,99191.73
2022-09-12T07:32:06.025Z,99192.16
2022-09-12T07:34:34.972Z,99193.46
2022-09-12T07:37:03.295Z,99197.14
2022-09-12T07:39:31.265Z,99193.30
2022-09-12T07:42:00.648Z,99198.66
2022-09-12T07:44:30.371Z,99197.22
2022-09-12T07:46:58.460Z,99196.79
2022-09-12T07:49:26.331Z,99200.45
2022-09-12T07:51:54.120Z,99199.43
2022-09-12T07:54:22.021Z,99205.00
2022-09-12T07:56:49.869Z,99202.77
2022-09-12T07:59:30.210Z,99199.98
2022-09-12T08:02:16.571Z,99201.33
2022-09-12T08:04:45.307Z,99202.47
2022-09-12T08:07:13.233Z,99202.66
2022-09-12T08:09:42.127Z,99205.16
2022-09-12T08:12:10.439Z,99210.17
2022-09-12T08:14:38.647Z,99209.73
2022-09-12T08:17:07.745Z,99208.44
2022-09-12T08:19:36.364Z,99208.56
2022-09-12T08:22:07.046Z,99206.11
2022-09-12T08:24:34.937Z,99209.46
2022-09-12T08:27:04.140Z,99212.26
2022-09-12T08:29:32.115Z,99212.52
2022-09-12T08:32:00.163Z,99216.63
2022-09-12T08:34:28.043Z,99212.15
2022-09-12T08:36:55.866Z,99211.53
2022-09-12T08:39:25.068Z,99209.00
2022-09-12T08:42:03.330Z,99215.28
2022-09-12T08:45:05.882Z,99210.73
2022-09-12T08:47:45.305Z,99215.11
2022-09-12T08:50:19.883Z,99216.95
2022-09-12T08:52:58.823Z,99217.98
2022-09-12T08:55:41.519Z,99214.12
2022-09-12T08:58:24.318Z,99209.46
2022-09-12T09:01:35.858Z,99210.27
2022-09-12T09:04:31.406Z,99210.98
2022-09-12T09:07:18.997Z,99215.52
2022-09-12T09:10:17.018Z,99211.17
2022-09-12T09:13:41.066Z,99215.00
2022-09-12T09:16:27.286Z,99207.98
2022-09-12T09:19:17.692Z,99212.67
2022-09-12T09:21:59.144Z,99220.50
2022-09-12T09:24:45.546Z,99213.09
2022-09-12T09:27:44.178Z,99209.70
2022-09-12T09:30:17.577Z,99211.59
2022-09-12T09:32:52.455Z,99209.45
2022-09-12T09:35:59.553Z,99202.52
2022-09-12T09:38:41.802Z,99205.04
2022-09-12T09:42:07.882Z,99207.57
2022-09-12T09:44:36.677Z,99206.65
2022-09-12T09:47:05.536Z,99213.28
2022-09-12T09:49:35.254Z,99215.10
2022-09-12T09:52:07.380Z,99215.58
2022-09-12T09:54:41.364Z,99213.44
2022-09-12T09:57:34.548Z,99215.80
2022-09-12T10:00:21.969Z,99206.02
2022-09-12T10:03:13.843Z,99208.47
2022-09-12T10:05:46.968Z,99200.18
2022-09-12T10:08:31.146Z,99197.33
2022-09-12T10:11:17.530Z,99191.72
2022-09-12T10:13:57.969Z,99195.74
2022-09-12T10:16:33.539Z,99189.17
2022-09-12T10:19:04.137Z,99191.47
2022-09-12T10:21:41.354Z,99187.42
2022-09-12T10:24:43.671Z,99190.84
2022-09-12T10:27:20.736Z,99194.24
2022-09-12T10:30:04.679Z,99196.70
2022-09-12T10:32:47.127Z,99197.63
2022-09-12T10:35:24.135Z,99190.35
2022-09-12T10:38:04.933Z,99185.94
2022-09-12T10:40:45.447Z,99188.61
2022-09-12T10:43:24.517Z,99185.95
2022-09-12T10:46:19.960Z,99182.71
2022-09-12T10:49:11.838Z,99185.61
2022-09-12T10:52:25.803Z,99187.58
2022-09-12T10:54:54.952Z,99181.23
2022-09-12T10:57:25.720Z,99186.60
2022-09-12T11:00:18.066Z,99185.39
2022-09-12T11:02:58.978Z,99188.24
2022-09-12T11:05:49.377Z,99184.06
2022-09-12T11:08:48.377Z,99182.08
2022-09-12T11:12:01.340Z,99187.77
2022-09-12T11:15:03.238Z,99179.14
2022-09-12T11:17:54.346Z,99180.23
2022-09-12T11:21:04.120Z,99182.30
2022-09-12T11:24:00.197Z,99179.34
2022-09-12T11:27:00.998Z,99184.73
2022-09-12T11:30:10.430Z,99188.38
2022-09-12T11:33:23.550Z,99192.60
2022-09-12T11:35:55.531Z,99180.98
2022-09-12T11:39:07.209Z,99185.24
2022-09-12T11:41:36.890Z,99175.98
2022-09-12T11:44:27.143Z,99179.03
2022-09-12T11:46:55.198Z,99178.94
2022-09-12T11:49:47.531Z,99184.34
2022-09-12T11:52:19.968Z,99187.55
2022-09-12T11:55:05.993Z,99179.23
2022-09-12T11:57:41.607Z,99178.50
2022-09-12T12:00:20.343Z,99174.61
2022-09-12T12:03:06.558Z,99173.44
2022-09-12T12:05:57.871Z,99174.57
2022-09-12T12:08:27.824Z,99174.40
2022-09-12T12:11:02.330Z,99172.66
2022-09-12T12:13:51.100Z,99169.98
2022-09-12T12:16:30.047Z,99169.45
2022-09-12T12:19:00.424Z,99163.31
2022-09-12T12:21:36.969Z,99163.63
2022-09-12T12:24:08.153Z,99163.79
2022-09-12T12:26:41.270Z,99161.76
2022-09-12T12:29:24.281Z,99159.39
2022-09-12T12:32:25.048Z,99159.30
2022-09-12T12:35:02.596Z,99161.05
2022-09-12T12:37:30.320Z,99165.22
2022-09-12T12:40:09.782Z,99163.64
2022-09-12T12:42:43.865Z,99163.00
2022-09-12T12:45:30.084Z,99162.09
2022-09-12T12:48:10.252Z,99158.71
2022-09-12T12:50:39.529Z,99161.56
2022-09-12T12:53:19.747Z,99160.43
2022-09-12T12:55:53.260Z,99157.60
2022-09-12T12:58:34.714Z,99149.45
2022-09-12T13:01:25.831Z,99153.99
2022-09-12T13:03:56.286Z,99155.22
2022-09-12T13:06:32.110Z,99151.28
2022-09-12T13:09:06.089Z,99153.07
2022-09-12T13:11:40.491Z,99147.02
2022-09-12T13:14:36.162Z,99146.86
2022-09-12T13:17:08.451Z,99149.63
2022-09-12T13:19:38.158Z,99153.60
2022-09-12T13:22:08.886Z,99147.69
2022-09-12T13:24:49.186Z,99154.88
2022-09-12T13:27:19.807Z,99155.64
2022-09-12T13:29:47.937Z,99150.05
2022-09-12T13:32:18.351Z,99148.59
2022-09-12T13:35:21.284Z,99145.86
2022-09-12T13:38:23.604Z,99147.61
2022-09-12T13:41:27.181Z,99141.94
2022-09-12T13:43:55.162Z,99141.55
2022-09-12T13:46:31.409Z,99137.05
2022-09-12T13:49:01.497Z,99136.04
2022-09-12T13:51:32.247Z,99137.63
2022-09-12T13:54:04.719Z,99135.10
2022-09-12T13:56:33.296Z,99131.05
2022-09-12T13:59:02.614Z,99129.40
2022-09-12T14:01:47.694Z,99130.52
2022-09-12T14:04:43.549Z,99126.55
2022-09-12T14:07:20.356Z,99131.19
2022-09-12T14:09:57.442Z,99126.91
2022-09-12T14:12:30.365Z,99126.85
2022-09-12T14:14:59.442Z,99130.39
2022-09-12T14:17:29.969Z,99128.80
2022-09-12T14:20:03.641Z,99127.59
2022-09-12T14:22:34.277Z,99124.23
2022-09-12T14:25:03.467Z,99121.92
2022-09-12T14:27:45.776Z,99121.12
2022-09-12T14:30:32.131Z,99119.85
2022-09-12T14:33:18.968Z,99118.00
2022-09-12T14:35:51.170Z,99116.10
2022-09-12T14:38:36.183Z,99112.95
2022-09-12T14:41:10.568Z,99109.20
2022-09-12T14:43:46.018Z,99109.84
2022-09-12T14:46:28.684Z,99111.80
2022-09-12T14:49:29.580Z,99111.05
2022-09-12T14:52:00.220Z,99113.74
2022-09-12T14:54:39.561Z,99109.44
2022-09-12T14:57:30.563Z,99102.13
2022-09-12T15:00:21.035Z,99101.30
2022-09-12T15:02:50.236Z,99099.60
2022-09-12T15:05:21.438Z,99100.94
2022-09-12T15:08:01.293Z,99102.11
2022-09-12T15:10:37.843Z,99100.00
2022-09-12T15:13:05.556Z,99103.01
2022-09-12T15:15:34.097Z,99098.66
2022-09-12T15:18:06.846Z,99098.36
2022-09-12T15:20:41.382Z,99098.92
2022-09-12T15:23:21.256Z,99098.48
2022-09-12T15:25:49.437Z,99101.79
2022-09-12T15:28:22.779Z,99101.88
2022-09-12T15:30:54.910Z,99102.83
2022-09-12T15:33:25.437Z,99106.13
2022-09-12T15:35:53.678Z,99107.48
2022-09-12T15:38:25.797Z,99111.17
2022-09-12T15:40:55.048Z,99108.88
2022-09-12T15:43:23.848Z,99109.90
2022-09-12T15:45:52.505Z,99109.81
2022-09-12T15:48:21.202Z,99106.36
2022-09-12T15:50:49.381Z,99106.95
2022-09-12T15:53:17.869Z,99107.15
2022-09-12T15:55:46.577Z,99103.99
2022-09-12T15:58:14.443Z,99106.04
2022-09-12T16:00:42.286Z,99103.75
2022-09-12T16:03:20.526Z,99102.14
2022-09-12T16:05:56.377Z,99096.45
2022-09-12T16:08:25.162Z,99095.48
2022-09-12T16:10:58.735Z,99097.30
2022-09-12T16:13:26.939Z,99097.67
2022-09-12T16:15:58.993Z,99097.29
2022-09-12T16:18:28.481Z,99094.98
2022-09-12T16:20:57.062Z,99091.41
2022-09-12T16:23:26.018Z,99087.45
2022-09-12T16:26:01.482Z,99086.34
2022-09-12T16:28:29.415Z,99087.93
2022-09-12T16:31:00.000Z,99085.19
2022-09-12T16:33:29.079Z,99085.36
2022-09-12T16:36:12.039Z,99082.15
2022-09-12T16:38:54.252Z,99083.36
2022-09-12T16:41:27.602Z,99082.20
2022-09-12T16:44:00.537Z,99081.20
2022-09-12T16:46:29.373Z,99081.42
2022-09-12T16:48:58.887Z,99078.59
2022-09-12T16:51:32.023Z,99076.05
2022-09-12T16:53:59.894Z,99078.42
2022-09-12T16:56:28.041Z,99073.10
2022-09-12T16:58:56.030Z,99070.84
2022-09-12T17:01:25.849Z,99070.98
2022-09-12T17:03:56.650Z,99061.56
2022-09-12T17:06:26.307Z,99066.46
2022-09-12T17:08:59.056Z,99062.58
2022-09-12T17:11:32.773Z,99061.45
2022-09-12T17:14:05.373Z,99063.48
2022-09-12T17:16:42.040Z,99059.83
2022-09-12T17:19:15.995Z,99060.80
2022-09-12T17:21:47.695Z,99063.87
2022-09-12T17:24:20.220Z,99063.41
2022-09-12T17:26:48.465Z,99064.84
2022-09-12T17:29:17.621Z,99069.42
2022-09-12T17:31:47.107Z,99069.66
2022-09-12T17:34:17.457Z,99069.73
2022-09-12T17:36:49.265Z,99072.88
2022-09-12T17:39:19.058Z,99077.06
2022-09-12T17:41:47.805Z,99081.95
2022-09-12T17:44:17.600Z,99081.86
2022-09-12T17:46:46.503Z,99081.86
2022-09-12T17:49:16.760Z,99080.27
2022-09-12T17:51:45.871Z,99085.36
2022-09-12T17:54:17.645Z,99083.81
2022-09-12T17:56:49.381Z,99085.84
2022-09-12T17:59:30.817Z,99085.73
2022-09-12T18:02:14.922Z,99086.49
2022-09-12T18:04:46.507Z,99086.15
2022-09-12T18:07:18.831Z,99086.73
2022-09-12T18:09:51.328Z,99085.83
2022-09-12T18:12:20.501Z,99084.59
2022-09-12T18:14:48.719Z,99083.23
2022-09-12T18:17:17.384Z,99082.26
2022-09-12T18:19:50.360Z,99085.09
2022-09-12T18:22:21.924Z,99078.45
2022-09-12T18:24:51.026Z,99076.14
2022-09-12T18:27:19.545Z,99074.69
2022-09-12T18:30:04.218Z,99074.02
2022-09-12T18:32:36.451Z,99073.15
2022-09-12T18:35:06.380Z,99072.86
2022-09-12T18:37:36.033Z,99069.60
2022-09-12T18:40:05.090Z,99069.54
2022-09-12T18:42:33.642Z,99071.16
2022-09-12T18:45:02.707Z,99065.71
2022-09-12T18:47:32.540Z,99063.63
2022-09-12T18:50:01.948Z,99060.91
2022-09-12T18:52:30.437Z,99060.73
2022-09-12T18:54:59.328Z,99062.39
2022-09-12T18:57:27.916Z,99062.77
2022-09-12T19:00:00.297Z,99071.45
2022-09-12T19:02:29.486Z,99068.06
2022-09-12T19:04:57.835Z,99070.04
2022-09-12T19:07:26.280Z,99067.43
2022-09-12T19:09:54.929Z,99066.71
2022-09-12T19:12:24.605Z,99070.88
2022-09-12T19:14:52.891Z,99072.84
2022-09-12T19:17:21.564Z,99071.35
2022-09-12T19:19:49.644Z,99069.63
2022-09-12T19:22:17.813Z,99075.59
2022-09-12T19:24:45.668Z,99075.02
2022-09-12T19:27:13.843Z,99073.66
2022-09-12T19:29:41.949Z,99069.41
2022-09-12T19:32:10.144Z,99065.45
2022-09-12T19:34:38.064Z,99065.02
2022-09-12T19:37:05.900Z,99064.04
2022-09-12T19:39:34.564Z,99063.69
2022-09-12T19:42:02.584Z,99060.36
2022-09-12T19:44:30.632Z,99060.75
2022-09-12T19:46:58.661Z,99059.81
2022-09-12T19:49:26.579Z,99060.84
2022-09-12T19:51:54.478Z,99059.66
2022-09-12T19:54:22.402Z,99055.23
2022-09-12T19:56:50.690Z,99053.94
2022-09-12T19:59:18.840Z,99052.40
2022-09-12T20:01:47.570Z,99051.67
2022-09-12T20:04:16.736Z,99055.48
2022-09-12T20:06:45.025Z,99052.65
2022-09-12T20:09:13.232Z,99056.87
2022-09-12T20:11:41.064Z,99059.30
2022-09-12T20:14:09.618Z,99054.35
2022-09-12T20:16:37.864Z,99051.14
2022-09-12T20:19:08.527Z,99050.69
2022-09-12T20:21:36.899Z,99051.15
2022-09-12T20:24:07.495Z,99053.07
2022-09-12T20:26:35.950Z,99047.59
2022-09-12T20:29:05.753Z,99050.66
2022-09-12T20:31:34.635Z,99051.13
2022-09-12T20:34:04.408Z,99050.36
2022-09-12T20:36:32.382Z,99048.23
2022-09-12T20:39:03.678Z,99045.23
2022-09-12T20:41:34.569Z,99041.55
2022-09-12T20:44:02.667Z,99040.55
2022-09-12T20:46:30.564Z,99043.84
2022-09-12T20:48:58.889Z,99042.73
2022-09-12T20:51:27.382Z,99041.30
2022-09-12T20:53:57.343Z,99044.11
2022-09-12T20:56:27.322Z,99043.39
2022-09-12T20:58:55.894Z,99044.83
2022-09-12T21:01:25.823Z,99045.49
2022-09-12T21:03:53.962Z,99042.17
2022-09-12T21:06:22.147Z,99042.84
2022-09-12T21:08:50.614Z,99039.59
2022-09-12T21:11:20.012Z,99040.73
2022-09-12T21:13:47.898Z,99042.95
2022-09-12T21:16:21.133Z,99041.75
2022-09-12T21:19:18.858Z,99042.77
2022-09-12T21:21:46.609Z,99039.05
2022-09-12T21:24:15.214Z,99036.91
2022-09-12T21:26:43.064Z,99041.02
2022-09-12T21:29:11.090Z,99041.73
2022-09-12T21:31:38.958Z,99038.54
2022-09-12T21:34:06.861Z,99043.38
2022-09-12T21:36:34.909Z,99041.23
2022-09-12T21:39:04.000Z,99038.39
2022-09-12T21:41:32.345Z,99035.20
2022-09-12T21:44:00.468Z,99025.34
2022-09-12T21:46:28.309Z,99024.33
2022-09-12T21:48:56.438Z,99025.64
2022-09-12T21:51:24.255Z,99022.58
2022-09-12T21:53:52.101Z,99024.18
2022-09-12T21:56:20.338Z,99023.10
2022-09-12T21:58:48.163Z,99024.29
2022-09-12T22:01:16.616Z,99019.52
2022-09-12T22:03:44.808Z,99017.48
2022-09-12T22:06:14.398Z,99015.05
2022-09-12T22:08:42.554Z,99016.42
2022-09-12T22:11:11.046Z,99011.64
2022-09-12T22:13:42.138Z,99014.70
2022-09-12T22:16:10.090Z,99015.67
2022-09-12T22:18:38.641Z,99014.89
2022-09-12T22:21:14.281Z,99011.03
2022-09-12T22:24:01.195Z,99009.33
2022-09-12T22:26:29.405Z,99011.46
2022-09-12T22:28:57.285Z,99007.84
2022-09-12T22:31:26.694Z,99007.22
2022-09-12T22:33:57.212Z,99004.27
2022-09-12T22:36:30.490Z,99003.42
2022-09-12T22:38:59.810Z,99002.11
2022-09-12T22:41:28.571Z,99002.36
2022-09-12T22:43:57.105Z,98999.52
2022-09-12T22:46:25.200Z,98992.88
2022-09-12T22:48:53.130Z,98991.48
2022-09-12T22:51:20.896Z,98990.57
2022-09-12T22:53:49.189Z,98994.30
2022-09-12T22:56:18.210Z,98994.67
2022-09-12T22:58:46.018Z,98989.89
2022-09-12T23:01:14.307Z,98985.60
2022-09-12T23:03:42.239Z,98982.17
2022-09-12T23:06:11.340Z,98981.20
2022-09-12T23:08:40.303Z,98976.63
2022-09-12T23:11:14.299Z,98979.17
2022-09-12T23:13:44.986Z,98972.96
2022-09-12T23:16:19.260Z,98970.27
2022-09-12T23:18:47.936Z,98964.49
2022-09-12T23:21:17.932Z,98959.42
2022-09-12T23:23:46.136Z,98960.26
2022-09-12T23:26:19.113Z,98959.41
2022-09-12T23:28:48.816Z,98957.32
2022-09-12T23:31:17.571Z,98959.34
2022-09-12T23:33:45.993Z,98958.00
2022-09-12T23:36:14.596Z,98961.83
2022-09-12T23:38:44.627Z,98961.81
2022-09-12T23:41:17.092Z,98961.92
2022-09-12T23:43:46.157Z,98956.36
2022-09-12T23:46:15.493Z,98953.90
2022-09-12T23:48:43.925Z,98951.19
2022-09-12T23:51:12.071Z,98948.98
2022-09-12T23:53:41.491Z,98943.00
2022-09-12T23:56:10.093Z,98939.52
2022-09-12T23:58:38.115Z,98941.19
